Time;durP1;ratioP1;P1;durP2;ratioP2;P2;SDS_P1;SDS_P2;PMS_P1;PMS_P2;Temp;Humidity;BMP_temperature;BMP_pressure;BME280_temperature;BME280_humidity;BME280_pressure;Samples;Min_cycle;Max_cycle;Signal;HPM_P1;HPM_P2
2022/06/12 00:00:35;;;;;;;;;;;;;;;;;;2097958;28;19926;-46
2022/06/12 00:01:36;;;;;;;;;;;;;;;;;;2097962;28;20011;-46
2022/06/12 00:02:37;;;;;;;;;;;;;;;;;;2097999;28;19927;-46
2022/06/12 00:03:43;;;;;;;;;;;;;;;;;;2098286;28;20015;-46
2022/06/12 00:04:44;;;;;;;;;;;;;;;;;;2097934;28;19928;-48
2022/06/12 00:05:45;;;;;;;;;;;;;;;;;;2097925;28;19920;-46
2022/06/12 00:06:47;;;;;;;;;;;;;;;;;;2098055;28;20365;-46
2022/06/12 00:07:48;;;;;;;;;;;;;;;;;;2097870;28;20373;-46
2022/06/12 00:08:49;;;;;;;;;;;;;;;;;;2098063;28;19989;-46
2022/06/12 00:09:55;;;;;;;;;;;;;;;;;;2097951;28;19921;-46
2022/06/12 00:10:56;;;;;;;;;;;;;;;;;;2097204;28;20007;-46
2022/06/12 00:11:57;;;;;;;;;;;;;;;;;;2089668;28;19921;-46
2022/06/12 00:12:58;;;;;;;;;;;;;;;;;;2089824;28;20293;-47
2022/06/12 00:13:59;;;;;;;;;;;;;;;;;;2089694;28;19927;-46
2022/06/12 00:14:59;;;;;;;;;;;;;;;;;;2089818;28;20334;-46
2022/06/12 00:16:00;;;;;;;;;;;;;;;;;;2089708;28;19927;-45
2022/06/12 00:17:01;;;;;;;;;;;;;;;;;;2089660;28;20007;-46
2022/06/12 00:18:03;;;;;;;;;;;;;;;;;;2089730;28;19931;-46
2022/06/12 00:19:04;;;;;;;;;;;;;;;;;;2094313;28;20194;-47
2022/06/12 00:20:05;;;;;;;;;;;;;;;;;;2097855;28;19968;-47
2022/06/12 00:21:12;;;;;;;;;;;;;;;;;;2097802;28;19925;-46
2022/06/12 00:22:12;;;;;;;;;;;;;;;;;;2098038;28;20360;-47
2022/06/12 00:23:13;;;;;;;;;;;;;;;;;;2097823;28;19928;-46
2022/06/12 00:24:14;;;;;;;;;;;;;;;;;;2098176;28;19955;-46
2022/06/12 00:25:15;;;;;;;;;;;;;;;;;;2097905;28;19999;-46
2022/06/12 00:26:16;;;;;;;;;;;;;;;;;;2097902;28;20262;-45
2022/06/12 00:27:17;;;;;;;;;;;;;;;;;;2097893;28;19993;-46
2022/06/12 00:28:18;;;;;;;;;;;;;;;;;;2097857;28;19927;-47
2022/06/12 00:29:19;;;;;;;;;;;;;;;;;;2097846;28;19980;-46
2022/06/12 00:30:20;;;;;;;;;;;;;;;;;;2098012;28;20053;-47
2022/06/12 00:31:21;;;;;;;;;;;;;;;;;;2097887;28;20460;-46
2022/06/12 00:32:24;;;;;;;;;;;;;;;;;;2097738;28;19920;-46
2022/06/12 00:33:25;;;;;;;;;;;;;;;;;;2098038;28;20400;-43
2022/06/12 00:34:26;;;;;;;;;;;;;;;;;;2097778;28;19973;-45
2022/06/12 00:35:27;;;;;;;;;;;;;;;;;;2097761;28;19928;-44
2022/06/12 00:36:28;;;;;;;;;;;;;;;;;;2097691;28;20377;-43
2022/06/12 00:37:28;;;;;;;;;;;;;;;;;;2097921;28;20405;-43
2022/06/12 00:38:29;;;;;;;;;;;;;;;;;;2097745;28;19927;-44
2022/06/12 00:39:31;;;;;;;;;;;;;;;;;;2097950;28;19927;-43
2022/06/12 00:40:32;;;;;;;;;;;;;;;;;;2097774;28;20020;-43
2022/06/12 00:41:32;;;;;;;;;;;;;;;;;;2097756;28;20020;-44
2022/06/12 00:42:35;;;;;;;;;;;;;;;;;;2097981;28;19920;-46
2022/06/12 00:43:35;;;;;;;;;;;;;;;;;;2097784;28;19999;-46
2022/06/12 00:44:36;;;;;;;;;;;;;;;;;;2097835;28;20332;-46
2022/06/12 00:45:37;;;;;;;;;;;;;;;;;;2097761;28;19928;-46
2022/06/12 00:46:38;;;;;;;;;;;;;;;;;;2097851;28;19927;-46
2022/06/12 00:47:39;;;;;;;;;;;;;;;;;;2097754;28;19975;-47
2022/06/12 00:48:40;;;;;;;;;;;;;;;;;;2097974;28;20439;-45
2022/06/12 00:49:41;;;;;;;;;;;;;;;;;;2097743;28;19962;-43
2022/06/12 00:50:42;;;;;;;;;;;;;;;;;;2097766;28;19986;-43
2022/06/12 00:51:43;;;;;;;;;;;;;;;;;;2097593;28;19967;-44
2022/06/12 00:52:44;;;;;;;;;;;;;;;;;;2097916;28;19927;-45
2022/06/12 00:53:45;;;;;;;;;;;;;;;;;;2097894;28;20285;-44
2022/06/12 00:54:45;;;;;;;;;;;;;;;;;;2097930;28;19956;-46
2022/06/12 00:55:46;;;;;;;;;;;;;;;;;;2097628;28;19927;-47
2022/06/12 00:56:49;;;;;;;;;;;;;;;;;;2097612;28;20003;-46
2022/06/12 00:57:50;;;;;;;;;;;;;;;;;;2097896;28;19924;-47
2022/06/12 00:58:51;;;;;;;;;;;;;;;;;;2097838;28;19920;-46
2022/06/12 00:59:52;;;;;;;;;;;;;;;;;;2097726;28;20389;-46
2022/06/12 01:00:53;;;;;;;;;;;;;;;;;;2099161;28;20066;-46
2022/06/12 01:01:54;;;;;;;;;;;;;;;;;;2099362;28;19920;-47
2022/06/12 01:02:57;;;;;;;;;;;;;;;;;;2099214;28;19921;-46
2022/06/12 01:06:36;;;;;;;;;;;;;;;;;;2099093;28;20330;-46
2022/06/12 01:07:37;;;;;;;;;;;;;;;;;;2099124;28;19973;-46
2022/06/12 01:08:38;;;;;;;;;;;;;;;;;;2099142;28;19920;-45
2022/06/12 01:09:40;;;;;;;;;;;;;;;;;;2099199;28;20027;-46
2022/06/12 01:10:41;;;;;;;;;;;;;;;;;;2099118;28;20003;-46
2022/06/12 01:11:42;;;;;;;;;;;;;;;;;;2091979;28;20321;-47
2022/06/12 01:12:43;;;;;;;;;;;;;;;;;;2090821;28;19924;-46
2022/06/12 01:13:44;;;;;;;;;;;;;;;;;;2090807;28;19952;-47
2022/06/12 01:14:45;;;;;;;;;;;;;;;;;;2090706;28;20431;-46
2022/06/12 01:15:46;;;;;;;;;;;;;;;;;;2099028;28;19920;-49
2022/06/12 01:16:48;;;;;;;;;;;;;;;;;;2099231;28;20773;-46
2022/06/12 01:17:49;;;;;;;;;;;;;;;;;;2099075;28;19920;-46
2022/06/12 01:18:50;;;;;;;;;;;;;;;;;;2099399;28;19947;-44
2022/06/12 01:19:51;;;;;;;;;;;;;;;;;;2099142;28;19920;-44
2022/06/12 01:20:52;;;;;;;;;;;;;;;;;;2099482;28;19921;-46
2022/06/12 01:21:53;;;;;;;;;;;;;;;;;;2099018;28;19931;-47
2022/06/12 01:22:54;;;;;;;;;;;;;;;;;;2099155;28;20358;-46
2022/06/12 01:23:55;;;;;;;;;;;;;;;;;;2098978;28;19952;-46
2022/06/12 01:24:56;;;;;;;;;;;;;;;;;;2099173;28;19959;-47
2022/06/12 01:25:56;;;;;;;;;;;;;;;;;;2099130;28;19978;-45
2022/06/12 01:26:57;;;;;;;;;;;;;;;;;;2099022;28;20023;-44
2022/06/12 01:27:58;;;;;;;;;;;;;;;;;;2099121;28;20058;-45
2022/06/12 01:28:59;;;;;;;;;;;;;;;;;;2099347;28;19920;-46
2022/06/12 01:30:00;;;;;;;;;;;;;;;;;;2099068;28;19989;-47
2022/06/12 01:31:01;;;;;;;;;;;;;;;;;;2099115;28;19970;-47
2022/06/12 01:32:01;;;;;;;;;;;;;;;;;;2098996;28;19921;-46
2022/06/12 01:33:02;;;;;;;;;;;;;;;;;;2098834;28;19931;-46
2022/06/12 01:34:03;;;;;;;;;;;;;;;;;;2099335;28;19927;-44
2022/06/12 01:35:04;;;;;;;;;;;;;;;;;;2098932;28;19920;-44
2022/06/12 01:36:05;;;;;;;;;;;;;;;;;;2098870;28;20278;-44
2022/06/12 01:37:06;;;;;;;;;;;;;;;;;;2099133;28;19970;-46
2022/06/12 01:38:07;;;;;;;;;;;;;;;;;;2098955;28;20623;-48
2022/06/12 01:39:08;;;;;;;;;;;;;;;;;;2098918;28;19927;-46
2022/06/12 01:40:09;;;;;;;;;;;;;;;;;;2098837;28;19928;-47
2022/06/12 01:41:10;;;;;;;;;;;;;;;;;;2098952;28;19920;-46
2022/06/12 01:42:11;;;;;;;;;;;;;;;;;;2098789;28;19993;-46
2022/06/12 01:43:12;;;;;;;;;;;;;;;;;;2098935;28;19969;-46
2022/06/12 01:44:12;;;;;;;;;;;;;;;;;;2098887;28;19978;-46
2022/06/12 01:45:13;;;;;;;;;;;;;;;;;;2099017;28;20360;-46
2022/06/12 01:46:14;;;;;;;;;;;;;;;;;;2098849;28;19956;-46
2022/06/12 01:47:15;;;;;;;;;;;;;;;;;;2099065;28;20395;-44
2022/06/12 01:48:16;;;;;;;;;;;;;;;;;;2098978;28;20007;-43
2022/06/12 01:49:17;;;;;;;;;;;;;;;;;;2099009;28;20017;-43
2022/06/12 01:50:18;;;;;;;;;;;;;;;;;;2098846;28;20410;-42
2022/06/12 01:51:19;;;;;;;;;;;;;;;;;;2098832;28;20026;-43
2022/06/12 01:52:21;;;;;;;;;;;;;;;;;;2099151;28;20007;-43
2022/06/12 01:53:22;;;;;;;;;;;;;;;;;;2098991;28;20006;-44
2022/06/12 01:54:23;;;;;;;;;;;;;;;;;;2099014;28;20010;-43
2022/06/12 01:55:24;;;;;;;;;;;;;;;;;;2098848;28;19973;-43
2022/06/12 01:56:25;;;;;;;;;;;;;;;;;;2098759;28;19974;-43
2022/06/12 01:57:26;;;;;;;;;;;;;;;;;;2098914;28;19920;-43
2022/06/12 01:58:27;;;;;;;;;;;;;;;;;;2098768;28;20073;-44
2022/06/12 01:59:28;;;;;;;;;;;;;;;;;;2098980;28;19970;-46
2022/06/12 02:00:28;;;;;;;;;;;;;;;;;;2098794;28;20062;-46
2022/06/12 02:01:29;;;;;;;;;;;;;;;;;;2098667;28;20313;-45
2022/06/12 02:02:30;;;;;;;;;;;;;;;;;;2098922;28;19920;-45
2022/06/12 02:03:31;;;;;;;;;;;;;;;;;;2098723;28;19927;-46
2022/06/12 02:04:32;;;;;;;;;;;;;;;;;;2099158;28;19924;-47
2022/06/12 02:05:33;;;;;;;;;;;;;;;;;;2098904;28;19926;-45
2022/06/12 02:06:34;;;;;;;;;;;;;;;;;;2098560;28;20366;-45
2022/06/12 02:07:39;;;;;;;;;;;;;;;;;;2098970;28;20436;-45
2022/06/12 02:08:40;;;;;;;;;;;;;;;;;;2098700;28;19934;-45
2022/06/12 02:09:41;;;;;;;;;;;;;;;;;;2098999;28;19936;-45
2022/06/12 02:10:42;;;;;;;;;;;;;;;;;;2098819;28;20003;-47
2022/06/12 02:13:11;;;;;;;;;;;;;;;;;;2098744;28;20065;-42
2022/06/12 02:14:12;;;;;;;;;;;;;;;;;;2099000;28;19998;-43
2022/06/12 02:15:12;;;;;;;;;;;;;;;;;;2098610;28;19924;-43
2022/06/12 02:16:13;;;;;;;;;;;;;;;;;;2098626;28;19920;-43
2022/06/12 02:17:15;;;;;;;;;;;;;;;;;;2098668;28;20316;-43
2022/06/12 02:18:17;;;;;;;;;;;;;;;;;;2098764;28;19999;-43
2022/06/12 02:19:18;;;;;;;;;;;;;;;;;;2098711;28;20081;-44
2022/06/12 02:20:19;;;;;;;;;;;;;;;;;;2098581;28;20374;-43
2022/06/12 02:21:19;;;;;;;;;;;;;;;;;;2098699;28;19920;-44
2022/06/12 02:22:20;;;;;;;;;;;;;;;;;;2098897;28;20002;-46
2022/06/12 02:23:21;;;;;;;;;;;;;;;;;;2098669;28;20018;-45
2022/06/12 02:24:22;;;;;;;;;;;;;;;;;;2098694;28;19920;-46
2022/06/12 02:25:23;;;;;;;;;;;;;;;;;;2099024;28;19932;-43
2022/06/12 02:26:24;;;;;;;;;;;;;;;;;;2098523;28;19974;-43
2022/06/12 02:27:25;;;;;;;;;;;;;;;;;;2098583;28;19920;-42
2022/06/12 02:28:26;;;;;;;;;;;;;;;;;;2098860;28;20356;-45
2022/06/12 02:29:27;;;;;;;;;;;;;;;;;;2098723;28;19924;-43
2022/06/12 02:30:28;;;;;;;;;;;;;;;;;;2098766;28;20367;-46
2022/06/12 02:31:29;;;;;;;;;;;;;;;;;;2098473;28;19920;-45
2022/06/12 02:32:29;;;;;;;;;;;;;;;;;;2098573;28;20293;-46
2022/06/12 02:33:30;;;;;;;;;;;;;;;;;;2098419;28;19963;-46
2022/06/12 02:34:31;;;;;;;;;;;;;;;;;;2098615;28;20285;-46
2022/06/12 02:35:32;;;;;;;;;;;;;;;;;;2098539;28;19959;-45
2022/06/12 02:36:33;;;;;;;;;;;;;;;;;;2098488;28;20294;-45
2022/06/12 02:37:34;;;;;;;;;;;;;;;;;;2098528;28;19970;-46
2022/06/12 02:38:34;;;;;;;;;;;;;;;;;;2098678;28;20027;-46
2022/06/12 02:39:35;;;;;;;;;;;;;;;;;;2098689;28;19927;-45
2022/06/12 02:40:36;;;;;;;;;;;;;;;;;;2098419;28;20027;-46
2022/06/12 02:41:37;;;;;;;;;;;;;;;;;;2098573;28;19974;-46
2022/06/12 02:42:38;;;;;;;;;;;;;;;;;;2098471;28;20293;-45
2022/06/12 02:43:39;;;;;;;;;;;;;;;;;;2098614;28;19924;-45
2022/06/12 02:44:40;;;;;;;;;;;;;;;;;;2098439;28;20289;-45
2022/06/12 02:45:41;;;;;;;;;;;;;;;;;;2098431;28;20006;-45
2022/06/12 02:46:41;;;;;;;;;;;;;;;;;;2098593;28;20011;-44
2022/06/12 02:47:42;;;;;;;;;;;;;;;;;;2098670;28;19924;-44
2022/06/12 02:48:43;;;;;;;;;;;;;;;;;;2098439;28;20416;-44
2022/06/12 02:49:46;;;;;;;;;;;;;;;;;;2098693;28;19966;-43
2022/06/12 02:50:46;;;;;;;;;;;;;;;;;;2098585;28;19981;-43
2022/06/12 02:51:47;;;;;;;;;;;;;;;;;;2098444;28;19921;-43
2022/06/12 02:52:48;;;;;;;;;;;;;;;;;;2098857;28;19920;-45
2022/06/12 02:53:49;;;;;;;;;;;;;;;;;;2098542;28;19967;-46
2022/06/12 02:54:51;;;;;;;;;;;;;;;;;;2098680;28;20216;-47
2022/06/12 02:55:52;;;;;;;;;;;;;;;;;;2098455;28;20057;-45
2022/06/12 02:56:53;;;;;;;;;;;;;;;;;;2098388;28;19985;-45
2022/06/12 02:57:54;;;;;;;;;;;;;;;;;;2098429;28;20006;-45
2022/06/12 02:58:55;;;;;;;;;;;;;;;;;;2098588;28;20014;-46
2022/06/12 02:59:56;;;;;;;;;;;;;;;;;;2098620;28;19926;-42
2022/06/12 03:00:56;;;;;;;;;;;;;;;;;;2098151;28;19928;-42
2022/06/12 03:01:57;;;;;;;;;;;;;;;;;;2098613;28;19920;-44
2022/06/12 03:02:58;;;;;;;;;;;;;;;;;;2098810;28;19986;-43
2022/06/12 03:03:59;;;;;;;;;;;;;;;;;;2098360;28;19924;-43
2022/06/12 03:05:00;;;;;;;;;;;;;;;;;;2098828;28;20010;-43
2022/06/12 03:06:01;;;;;;;;;;;;;;;;;;2098423;28;19921;-42
2022/06/12 03:07:02;;;;;;;;;;;;;;;;;;2098311;28;19963;-42
2022/06/12 03:08:03;;;;;;;;;;;;;;;;;;2098178;28;20313;-43
2022/06/12 03:09:04;;;;;;;;;;;;;;;;;;2098329;28;19927;-43
2022/06/12 03:10:05;;;;;;;;;;;;;;;;;;2098351;28;20015;-43
2022/06/12 03:11:05;;;;;;;;;;;;;;;;;;2096547;28;20057;-44
2022/06/12 03:12:06;;;;;;;;;;;;;;;;;;2090152;28;19925;-43
2022/06/12 03:13:07;;;;;;;;;;;;;;;;;;2090030;28;19952;-43
2022/06/12 03:14:09;;;;;;;;;;;;;;;;;;2089988;28;19928;-43
2022/06/12 03:15:09;;;;;;;;;;;;;;;;;;2090008;28;20289;-43
2022/06/12 03:16:10;;;;;;;;;;;;;;;;;;2090022;28;19921;-46
2022/06/12 03:17:11;;;;;;;;;;;;;;;;;;2090048;28;19920;-47
2022/06/12 03:18:12;;;;;;;;;;;;;;;;;;2090446;28;19983;-43
2022/06/12 03:19:13;;;;;;;;;;;;;;;;;;2090091;28;19924;-43
2022/06/12 03:20:14;;;;;;;;;;;;;;;;;;2090075;28;19927;-44
2022/06/12 03:21:15;;;;;;;;;;;;;;;;;;2090072;28;20012;-43
2022/06/12 03:22:16;;;;;;;;;;;;;;;;;;2090098;28;19921;-43
2022/06/12 03:23:17;;;;;;;;;;;;;;;;;;2089676;28;19979;-43
2022/06/12 03:24:18;;;;;;;;;;;;;;;;;;2089953;28;19925;-43
2022/06/12 03:25:19;;;;;;;;;;;;;;;;;;2090036;28;20015;-43
2022/06/12 03:26:20;;;;;;;;;;;;;;;;;;2089917;28;20294;-43
2022/06/12 03:27:20;;;;;;;;;;;;;;;;;;2090041;28;19932;-44
2022/06/12 03:28:21;;;;;;;;;;;;;;;;;;2090097;28;19955;-43
2022/06/12 03:29:22;;;;;;;;;;;;;;;;;;2089899;28;19924;-43
2022/06/12 03:30:23;;;;;;;;;;;;;;;;;;2089967;28;19931;-44
2022/06/12 03:31:24;;;;;;;;;;;;;;;;;;2089963;28;20011;-43
2022/06/12 03:32:25;;;;;;;;;;;;;;;;;;2089841;28;20361;-43
2022/06/12 03:33:26;;;;;;;;;;;;;;;;;;2090222;28;19956;-43
2022/06/12 03:34:27;;;;;;;;;;;;;;;;;;2090082;28;19926;-44
2022/06/12 03:35:27;;;;;;;;;;;;;;;;;;2090214;28;19971;-43
2022/06/12 03:36:28;;;;;;;;;;;;;;;;;;2089834;28;19925;-44
2022/06/12 03:37:29;;;;;;;;;;;;;;;;;;2089969;28;19920;-43
2022/06/12 03:38:30;;;;;;;;;;;;;;;;;;2089886;28;20281;-44
2022/06/12 03:39:31;;;;;;;;;;;;;;;;;;2089918;28;19928;-43
2022/06/12 03:40:32;;;;;;;;;;;;;;;;;;2089804;28;19928;-43
2022/06/12 03:41:33;;;;;;;;;;;;;;;;;;2089749;28;19971;-43
2022/06/12 03:42:34;;;;;;;;;;;;;;;;;;2090184;28;19920;-44
2022/06/12 03:43:34;;;;;;;;;;;;;;;;;;2089798;28;19921;-43
2022/06/12 03:44:35;;;;;;;;;;;;;;;;;;2089985;28;20011;-44
2022/06/12 03:45:38;;;;;;;;;;;;;;;;;;2090000;28;20016;-43
2022/06/12 03:46:39;;;;;;;;;;;;;;;;;;2089863;28;19925;-43
2022/06/12 03:47:40;;;;;;;;;;;;;;;;;;2089796;28;19921;-43
2022/06/12 03:48:41;;;;;;;;;;;;;;;;;;2089839;28;19921;-43
2022/06/12 03:49:41;;;;;;;;;;;;;;;;;;2089866;28;19970;-43
2022/06/12 03:50:42;;;;;;;;;;;;;;;;;;2089934;28;19924;-42
2022/06/12 03:51:43;;;;;;;;;;;;;;;;;;2090027;28;20018;-42
2022/06/12 03:52:44;;;;;;;;;;;;;;;;;;2089795;28;19920;-44
2022/06/12 03:53:45;;;;;;;;;;;;;;;;;;2090106;28;20369;-43
2022/06/12 03:54:46;;;;;;;;;;;;;;;;;;2089780;28;19932;-44
2022/06/12 03:58:27;;;;;;;;;;;;;;;;;;2090086;28;20032;-45
2022/06/12 03:59:28;;;;;;;;;;;;;;;;;;2089881;28;19971;-43
2022/06/12 04:00:29;;;;;;;;;;;;;;;;;;2089848;28;20333;-45
2022/06/12 04:01:30;;;;;;;;;;;;;;;;;;2089655;28;20275;-43
2022/06/12 04:02:31;;;;;;;;;;;;;;;;;;2089650;28;20025;-44
2022/06/12 04:03:32;;;;;;;;;;;;;;;;;;2090039;28;20007;-45
2022/06/12 04:04:33;;;;;;;;;;;;;;;;;;2098177;28;20693;-45
2022/06/12 04:05:34;;;;;;;;;;;;;;;;;;2098156;28;19963;-46
2022/06/12 04:06:34;;;;;;;;;;;;;;;;;;2098079;28;20011;-46
2022/06/12 04:07:35;;;;;;;;;;;;;;;;;;2098267;28;19920;-46
2022/06/12 04:08:36;;;;;;;;;;;;;;;;;;2098083;28;20337;-44
2022/06/12 04:09:37;;;;;;;;;;;;;;;;;;2098070;28;19920;-43
2022/06/12 04:10:38;;;;;;;;;;;;;;;;;;2097990;28;20054;-44
2022/06/12 04:11:39;;;;;;;;;;;;;;;;;;2091243;28;20354;-43
2022/06/12 04:12:40;;;;;;;;;;;;;;;;;;2090131;28;19928;-45
2022/06/12 04:13:41;;;;;;;;;;;;;;;;;;2089686;28;20438;-43
2022/06/12 04:14:41;;;;;;;;;;;;;;;;;;2090123;28;20153;-43
2022/06/12 04:15:42;;;;;;;;;;;;;;;;;;2089657;28;19956;-43
2022/06/12 04:16:43;;;;;;;;;;;;;;;;;;2089818;28;19925;-44
2022/06/12 04:17:44;;;;;;;;;;;;;;;;;;2089527;28;19922;-43
2022/06/12 04:18:45;;;;;;;;;;;;;;;;;;2089743;28;19952;-43
2022/06/12 04:20:04;;;;;;;;;;;;;;;;;;2089756;28;20015;-43
2022/06/12 04:21:05;;;;;;;;;;;;;;;;;;2089618;28;19936;-46
2022/06/12 04:22:06;;;;;;;;;;;;;;;;;;2089787;28;19921;-48
2022/06/12 04:23:07;;;;;;;;;;;;;;;;;;2089781;28;20003;-46
2022/06/12 04:24:08;;;;;;;;;;;;;;;;;;2089836;28;20016;-43
2022/06/12 04:25:08;;;;;;;;;;;;;;;;;;2090028;28;20357;-47
2022/06/12 04:26:09;;;;;;;;;;;;;;;;;;2089507;28;20020;-46
2022/06/12 04:27:10;;;;;;;;;;;;;;;;;;2089810;28;20093;-45
2022/06/12 04:28:11;;;;;;;;;;;;;;;;;;2089772;28;19920;-44
2022/06/12 04:29:12;;;;;;;;;;;;;;;;;;2089761;28;20289;-43
2022/06/12 04:30:13;;;;;;;;;;;;;;;;;;2089497;28;19956;-43
2022/06/12 04:31:14;;;;;;;;;;;;;;;;;;2089646;28;19928;-43
2022/06/12 04:32:15;;;;;;;;;;;;;;;;;;2089778;28;19952;-44
2022/06/12 04:33:16;;;;;;;;;;;;;;;;;;2089624;28;19921;-43
2022/06/12 04:34:16;;;;;;;;;;;;;;;;;;2089635;28;19921;-46
2022/06/12 04:35:17;;;;;;;;;;;;;;;;;;2088908;28;19921;-46
2022/06/12 04:36:18;;;;;;;;;;;;;;;;;;2089643;28;20012;-47
2022/06/12 04:37:19;;;;;;;;;;;;;;;;;;2089526;28;20400;-48
2022/06/12 04:38:20;;;;;;;;;;;;;;;;;;2089914;28;19921;-46
2022/06/12 04:39:21;;;;;;;;;;;;;;;;;;2089530;28;19928;-46
2022/06/12 04:40:22;;;;;;;;;;;;;;;;;;2089605;28;19920;-45
2022/06/12 04:41:23;;;;;;;;;;;;;;;;;;2089421;28;19974;-46
2022/06/12 04:42:25;;;;;;;;;;;;;;;;;;2089721;28;19928;-46
2022/06/12 04:43:26;;;;;;;;;;;;;;;;;;2089610;28;19920;-46
2022/06/12 04:44:27;;;;;;;;;;;;;;;;;;2089436;28;19924;-47
2022/06/12 04:45:28;;;;;;;;;;;;;;;;;;2089889;28;20511;-46
2022/06/12 04:46:29;;;;;;;;;;;;;;;;;;2089421;28;19921;-46
2022/06/12 04:47:30;;;;;;;;;;;;;;;;;;2089826;28;19946;-43
2022/06/12 04:48:31;;;;;;;;;;;;;;;;;;2089390;28;20010;-43
2022/06/12 04:49:31;;;;;;;;;;;;;;;;;;2089699;28;20364;-44
2022/06/12 04:50:32;;;;;;;;;;;;;;;;;;2089433;28;19921;-43
2022/06/12 04:51:33;;;;;;;;;;;;;;;;;;2089411;28;19924;-43
2022/06/12 04:52:34;;;;;;;;;;;;;;;;;;2089538;28;20011;-43
2022/06/12 04:53:35;;;;;;;;;;;;;;;;;;2089768;28;19955;-42
2022/06/12 04:54:36;;;;;;;;;;;;;;;;;;2089441;28;20329;-44
2022/06/12 04:55:37;;;;;;;;;;;;;;;;;;2089609;28;19971;-43
2022/06/12 04:56:38;;;;;;;;;;;;;;;;;;2089449;28;19925;-42
2022/06/12 04:57:39;;;;;;;;;;;;;;;;;;2089403;28;20002;-42
2022/06/12 04:58:40;;;;;;;;;;;;;;;;;;2089543;28;19925;-42
2022/06/12 04:59:40;;;;;;;;;;;;;;;;;;2089809;28;20019;-42
2022/06/12 05:00:41;;;;;;;;;;;;;;;;;;2097165;28;19920;-44
2022/06/12 05:01:42;;;;;;;;;;;;;;;;;;2097677;28;20015;-45
2022/06/12 05:02:43;;;;;;;;;;;;;;;;;;2098013;28;20278;-44
2022/06/12 05:03:44;;;;;;;;;;;;;;;;;;2097661;28;19943;-43
2022/06/12 05:04:45;;;;;;;;;;;;;;;;;;2097620;28;19927;-43
2022/06/12 05:05:47;;;;;;;;;;;;;;;;;;2098075;28;19927;-46
2022/06/12 05:06:49;;;;;;;;;;;;;;;;;;2097648;28;20011;-46
2022/06/12 05:07:50;;;;;;;;;;;;;;;;;;2098029;28;20003;-43
2022/06/12 05:08:52;;;;;;;;;;;;;;;;;;2097660;28;19926;-42
2022/06/12 05:09:53;;;;;;;;;;;;;;;;;;2097553;28;20320;-43
2022/06/12 05:10:54;;;;;;;;;;;;;;;;;;2097094;28;19920;-43
2022/06/12 05:11:55;;;;;;;;;;;;;;;;;;2089892;28;19920;-43
2022/06/12 05:12:56;;;;;;;;;;;;;;;;;;2089369;28;20358;-42
2022/06/12 05:13:57;;;;;;;;;;;;;;;;;;2089788;28;19921;-47
2022/06/12 05:14:58;;;;;;;;;;;;;;;;;;2089289;28;19921;-46
2022/06/12 05:15:59;;;;;;;;;;;;;;;;;;2089449;28;20039;-45
2022/06/12 05:17:00;;;;;;;;;;;;;;;;;;2090278;28;19956;-46
2022/06/12 05:18:01;;;;;;;;;;;;;;;;;;2089714;28;19943;-43
2022/06/12 05:19:02;;;;;;;;;;;;;;;;;;2089243;28;19928;-43
2022/06/12 05:20:04;;;;;;;;;;;;;;;;;;2089897;28;19964;-47
2022/06/12 05:21:04;;;;;;;;;;;;;;;;;;2089388;28;19939;-46
2022/06/12 05:22:05;;;;;;;;;;;;;;;;;;2089224;28;19998;-44
2022/06/12 05:23:06;;;;;;;;;;;;;;;;;;2089480;28;19958;-43
2022/06/12 05:24:07;;;;;;;;;;;;;;;;;;2089959;28;19960;-47
2022/06/12 05:25:08;;;;;;;;;;;;;;;;;;2089275;28;20340;-46
2022/06/12 05:26:09;;;;;;;;;;;;;;;;;;2089352;28;19927;-46
2022/06/12 05:27:10;;;;;;;;;;;;;;;;;;2089661;28;19932;-44
2022/06/12 05:28:11;;;;;;;;;;;;;;;;;;2089467;28;19921;-44
2022/06/12 05:29:12;;;;;;;;;;;;;;;;;;2089307;28;19928;-46
2022/06/12 05:30:13;;;;;;;;;;;;;;;;;;2089335;28;20008;-45
2022/06/12 05:31:14;;;;;;;;;;;;;;;;;;2089345;28;19924;-45
2022/06/12 05:32:15;;;;;;;;;;;;;;;;;;2089452;28;19928;-46
2022/06/12 05:33:16;;;;;;;;;;;;;;;;;;2089247;28;20408;-46
2022/06/12 05:34:17;;;;;;;;;;;;;;;;;;2089422;28;20023;-43
2022/06/12 05:35:18;;;;;;;;;;;;;;;;;;2089580;28;20351;-43
2022/06/12 05:36:19;;;;;;;;;;;;;;;;;;2089456;28;19964;-42
2022/06/12 05:37:20;;;;;;;;;;;;;;;;;;2089582;28;20286;-43
2022/06/12 05:38:21;;;;;;;;;;;;;;;;;;2089242;28;19920;-43
2022/06/12 05:39:21;;;;;;;;;;;;;;;;;;2089564;28;20286;-43
2022/06/12 05:40:22;;;;;;;;;;;;;;;;;;2089044;28;19960;-44
2022/06/12 05:41:23;;;;;;;;;;;;;;;;;;2089769;28;19925;-45
2022/06/12 05:42:24;;;;;;;;;;;;;;;;;;2089074;28;19922;-46
2022/06/12 05:43:25;;;;;;;;;;;;;;;;;;2089294;28;19920;-46
2022/06/12 05:44:26;;;;;;;;;;;;;;;;;;2090113;28;20019;-46
2022/06/12 05:45:30;;;;;;;;;;;;;;;;;;2089258;28;19920;-44
2022/06/12 05:46:31;;;;;;;;;;;;;;;;;;2090558;28;19943;-44
2022/06/12 05:47:32;;;;;;;;;;;;;;;;;;2090559;28;19921;-42
2022/06/12 05:48:33;;;;;;;;;;;;;;;;;;2090596;28;20031;-44
2022/06/12 05:49:34;;;;;;;;;;;;;;;;;;2090495;28;20077;-43
2022/06/12 05:50:35;;;;;;;;;;;;;;;;;;2090610;28;19920;-44
2022/06/12 05:51:36;;;;;;;;;;;;;;;;;;2090728;28;19928;-48
2022/06/12 05:52:41;;;;;;;;;;;;;;;;;;2090877;28;20017;-48
2022/06/12 05:53:42;;;;;;;;;;;;;;;;;;2091476;28;19930;-48
2022/06/12 05:54:43;;;;;;;;;;;;;;;;;;2091071;28;20319;-49
2022/06/12 05:55:44;;;;;;;;;;;;;;;;;;2098213;28;20368;-50
2022/06/12 05:56:45;;;;;;;;;;;;;;;;;;2098503;28;19963;-45
2022/06/12 05:57:45;;;;;;;;;;;;;;;;;;2099073;28;20007;-43
2022/06/12 05:58:48;;;;;;;;;;;;;;;;;;2098836;28;20381;-44
2022/06/12 05:59:49;;;;;;;;;;;;;;;;;;2098995;28;19920;-44
2022/06/12 06:00:50;;;;;;;;;;;;;;;;;;2099024;28;19939;-46
2022/06/12 06:01:51;;;;;;;;;;;;;;;;;;2098936;28;20381;-46
2022/06/12 06:02:52;;;;;;;;;;;;;;;;;;2098971;28;19995;-45
2022/06/12 06:03:53;;;;;;;;;;;;;;;;;;2098960;28;19924;-46
2022/06/12 06:04:55;;;;;;;;;;;;;;;;;;2098931;28;19920;-47
2022/06/12 06:05:55;;;;;;;;;;;;;;;;;;2098950;28;19982;-46
2022/06/12 06:06:58;;;;;;;;;;;;;;;;;;2099204;28;20369;-47
2022/06/12 06:08:00;;;;;;;;;;;;;;;;;;2099377;28;19974;-46
2022/06/12 06:09:01;;;;;;;;;;;;;;;;;;2099635;28;19983;-44
2022/06/12 06:10:01;;;;;;;;;;;;;;;;;;2098834;28;20365;-44
2022/06/12 06:11:03;;;;;;;;;;;;;;;;;;2097087;28;20011;-43
2022/06/12 06:12:04;;;;;;;;;;;;;;;;;;2090410;28;20012;-43
2022/06/12 06:13:04;;;;;;;;;;;;;;;;;;2090752;28;19975;-44
2022/06/12 06:14:06;;;;;;;;;;;;;;;;;;2091246;28;20371;-43
2022/06/12 06:15:07;;;;;;;;;;;;;;;;;;2090926;28;20025;-46
2022/06/12 06:16:08;;;;;;;;;;;;;;;;;;2091451;28;20418;-48
2022/06/12 06:17:09;;;;;;;;;;;;;;;;;;2090795;28;19924;-44
2022/06/12 06:18:10;;;;;;;;;;;;;;;;;;2090687;28;20028;-47
2022/06/12 06:19:11;;;;;;;;;;;;;;;;;;2090381;28;20412;-48
2022/06/12 06:20:12;;;;;;;;;;;;;;;;;;2091421;28;20019;-48
2022/06/12 06:21:14;;;;;;;;;;;;;;;;;;2091284;28;20309;-48
2022/06/12 06:22:20;;;;;;;;;;;;;;;;;;2091089;28;19924;-47
2022/06/12 06:23:21;;;;;;;;;;;;;;;;;;2090831;28;19921;-43
2022/06/12 06:24:23;;;;;;;;;;;;;;;;;;2090696;28;19921;-47
2022/06/12 06:25:24;;;;;;;;;;;;;;;;;;2090511;28;19960;-46
2022/06/12 06:26:25;;;;;;;;;;;;;;;;;;2090615;28;19967;-49
2022/06/12 06:27:26;;;;;;;;;;;;;;;;;;2090459;28;20003;-44
2022/06/12 06:28:27;;;;;;;;;;;;;;;;;;2090837;28;19999;-45
2022/06/12 06:29:28;;;;;;;;;;;;;;;;;;2090815;28;19925;-47
2022/06/12 06:30:28;;;;;;;;;;;;;;;;;;2090744;28;19921;-47
2022/06/12 06:31:29;;;;;;;;;;;;;;;;;;2090422;28;19928;-47
2022/06/12 06:32:32;;;;;;;;;;;;;;;;;;2090710;28;19920;-46
2022/06/12 06:33:33;;;;;;;;;;;;;;;;;;2090944;28;19992;-44
2022/06/12 06:34:37;;;;;;;;;;;;;;;;;;2092887;28;20015;-43
2022/06/12 06:35:38;;;;;;;;;;;;;;;;;;2098847;28;20384;-48
2022/06/12 06:36:39;;;;;;;;;;;;;;;;;;2098708;28;19920;-45
2022/06/12 06:37:39;;;;;;;;;;;;;;;;;;2098545;28;19920;-44
2022/06/12 06:38:41;;;;;;;;;;;;;;;;;;2099073;28;19959;-44
2022/06/12 06:39:42;;;;;;;;;;;;;;;;;;2099429;28;20018;-45
2022/06/12 06:40:43;;;;;;;;;;;;;;;;;;2098723;28;19924;-44
2022/06/12 06:41:44;;;;;;;;;;;;;;;;;;2099068;28;20375;-47
2022/06/12 06:42:45;;;;;;;;;;;;;;;;;;2098538;28;19959;-47
2022/06/12 06:46:24;;;;;;;;;;;;;;;;;;2098433;28;20324;-44
2022/06/12 06:47:25;;;;;;;;;;;;;;;;;;2099053;28;19969;-45
2022/06/12 06:48:26;;;;;;;;;;;;;;;;;;2098865;28;20022;-45
2022/06/12 06:49:27;;;;;;;;;;;;;;;;;;2099105;28;19943;-45
2022/06/12 06:50:28;;;;;;;;;;;;;;;;;;2098417;28;20015;-47
2022/06/12 06:51:30;;;;;;;;;;;;;;;;;;2099143;28;19920;-44
2022/06/12 06:52:31;;;;;;;;;;;;;;;;;;2097370;28;20468;-44
2022/06/12 06:53:32;;;;;;;;;;;;;;;;;;2090325;28;19940;-44
2022/06/12 06:54:33;;;;;;;;;;;;;;;;;;2090199;28;19970;-45
2022/06/12 06:55:37;;;;;;;;;;;;;;;;;;2090326;28;19924;-48
2022/06/12 06:56:38;;;;;;;;;;;;;;;;;;2090116;28;20055;-49
2022/06/12 06:57:39;;;;;;;;;;;;;;;;;;2089656;28;20006;-48
2022/06/12 06:58:40;;;;;;;;;;;;;;;;;;2089929;28;20484;-46
2022/06/12 06:59:41;;;;;;;;;;;;;;;;;;2090154;28;20378;-47
2022/06/12 07:00:43;;;;;;;;;;;;;;;;;;2090662;28;20125;-46
2022/06/12 07:01:44;;;;;;;;;;;;;;;;;;2090247;28;20393;-43
2022/06/12 07:02:44;;;;;;;;;;;;;;;;;;2090502;28;19920;-43
2022/06/12 07:03:45;;;;;;;;;;;;;;;;;;2092218;28;20285;-45
2022/06/12 07:04:46;;;;;;;;;;;;;;;;;;2098972;28;19920;-45
2022/06/12 07:05:47;;;;;;;;;;;;;;;;;;2098556;28;19928;-43
2022/06/12 07:06:48;;;;;;;;;;;;;;;;;;2098746;28;19924;-45